sensor_id;sensor_type;location;lat;lon;timestamp;pressure;altitude;pressure_sealevel;temperature;humidity
9538;BME280;4807;48.024;11.726;2024-01-10T00:01:21;95611.97;;;-6.18;83.52
9538;BME280;4807;48.024;11.726;2024-01-10T00:04:33;95601.53;;;-6.17;83.47
9538;BME280;4807;48.024;11.726;2024-01-10T00:07:41;95598.16;;;-6.19;83.43
9538;BME280;4807;48.024;11.726;2024-01-10T00:10:51;95593.31;;;-6.09;83.12
9538;BME280;4807;48.024;11.726;2024-01-10T00:14:01;95592.56;;;-6.11;83.87
9538;BME280;4807;48.024;11.726;2024-01-10T00:17:12;95583.09;;;-6.12;83.65
9538;BME280;4807;48.024;11.726;2024-01-10T00:20:20;95587.94;;;-6.06;84.10
9538;BME280;4807;48.024;11.726;2024-01-10T00:23:28;95592.97;;;-6.03;83.99
9538;BME280;4807;48.024;11.726;2024-01-10T00:26:37;95590.09;;;-5.98;85.25
9538;BME280;4807;48.024;11.726;2024-01-10T00:29:45;95589.97;;;-6.11;85.49
9538;BME280;4807;48.024;11.726;2024-01-10T00:32:55;95585.84;;;-6.15;86.24
9538;BME280;4807;48.024;11.726;2024-01-10T00:36:04;95586.97;;;-6.19;86.87
9538;BME280;4807;48.024;11.726;2024-01-10T00:39:13;95594.81;;;-6.21;87.14
9538;BME280;4807;48.024;11.726;2024-01-10T00:42:22;95588.28;;;-6.12;86.90
9538;BME280;4807;48.024;11.726;2024-01-10T00:45:30;95586.13;;;-6.04;86.62
9538;BME280;4807;48.024;11.726;2024-01-10T00:48:40;95595.56;;;-6.03;86.38
9538;BME280;4807;48.024;11.726;2024-01-10T00:51:48;95602.31;;;-6.47;86.85
9538;BME280;4807;48.024;11.726;2024-01-10T00:54:56;95595.13;;;-6.74;89.33
9538;BME280;4807;48.024;11.726;2024-01-10T00:58:09;95597.94;;;-6.78;89.41
9538;BME280;4807;48.024;11.726;2024-01-10T01:01:18;95599.97;;;-6.83;90.56
9538;BME280;4807;48.024;11.726;2024-01-10T01:04:28;95595.78;;;-6.86;90.28
9538;BME280;4807;48.024;11.726;2024-01-10T01:07:36;95602.22;;;-6.77;90.70
9538;BME280;4807;48.024;11.726;2024-01-10T01:10:44;95606.22;;;-6.72;90.72
9538;BME280;4807;48.024;11.726;2024-01-10T01:13:52;95612.16;;;-6.70;90.62
9538;BME280;4807;48.024;11.726;2024-01-10T01:17:01;95611.44;;;-6.56;90.89
9538;BME280;4807;48.024;11.726;2024-01-10T01:20:11;95614.69;;;-6.52;91.13
9538;BME280;4807;48.024;11.726;2024-01-10T01:23:19;95622.41;;;-6.35;90.02
9538;BME280;4807;48.024;11.726;2024-01-10T01:26:44;95625.91;;;-6.36;90.96
9538;BME280;4807;48.024;11.726;2024-01-10T01:29:53;95630.25;;;-6.21;91.27
9538;BME280;4807;48.024;11.726;2024-01-10T01:33:01;95626.41;;;-6.14;89.31
9538;BME280;4807;48.024;11.726;2024-01-10T01:36:13;95626.09;;;-6.08;89.36
9538;BME280;4807;48.024;11.726;2024-01-10T01:39:21;95625.41;;;-5.96;89.29
9538;BME280;4807;48.024;11.726;2024-01-10T01:42:29;95626.72;;;-5.89;87.82
9538;BME280;4807;48.024;11.726;2024-01-10T01:45:37;95637.47;;;-5.95;87.34
9538;BME280;4807;48.024;11.726;2024-01-10T01:48:46;95632.78;;;-6.04;87.38
9538;BME280;4807;48.024;11.726;2024-01-10T01:51:56;95628.59;;;-6.06;87.32
9538;BME280;4807;48.024;11.726;2024-01-10T01:55:06;95620.91;;;-6.08;87.88
9538;BME280;4807;48.024;11.726;2024-01-10T01:58:16;95621.75;;;-5.92;87.51
9538;BME280;4807;48.024;11.726;2024-01-10T02:01:25;95627.84;;;-5.93;87.14
9538;BME280;4807;48.024;11.726;2024-01-10T02:04:34;95628.16;;;-5.99;87.39
9538;BME280;4807;48.024;11.726;2024-01-10T02:07:45;95630.66;;;-5.97;86.96
9538;BME280;4807;48.024;11.726;2024-01-10T02:10:53;95629.44;;;-6.22;87.86
9538;BME280;4807;48.024;11.726;2024-01-10T02:14:02;95633.09;;;-6.41;88.83
9538;BME280;4807;48.024;11.726;2024-01-10T02:17:10;95628.44;;;-6.35;89.18
9538;BME280;4807;48.024;11.726;2024-01-10T02:20:19;95628.78;;;-6.25;90.16
9538;BME280;4807;48.024;11.726;2024-01-10T02:23:30;95628.66;;;-6.39;89.63
9538;BME280;4807;48.024;11.726;2024-01-10T02:26:40;95632.28;;;-6.26;89.64
9538;BME280;4807;48.024;11.726;2024-01-10T02:29:49;95629.75;;;-6.12;88.67
9538;BME280;4807;48.024;11.726;2024-01-10T02:32:58;95634.03;;;-6.11;88.29
9538;BME280;4807;48.024;11.726;2024-01-10T02:36:06;95636.22;;;-6.19;88.50
9538;BME280;4807;48.024;11.726;2024-01-10T02:39:15;95641.88;;;-6.12;89.29
9538;BME280;4807;48.024;11.726;2024-01-10T02:42:50;95644.97;;;-6.06;88.36
9538;BME280;4807;48.024;11.726;2024-01-10T02:45:58;95643.28;;;-6.07;88.50
9538;BME280;4807;48.024;11.726;2024-01-10T02:49:07;95641.31;;;-6.02;88.04
9538;BME280;4807;48.024;11.726;2024-01-10T02:52:15;95631.69;;;-6.00;88.32
9538;BME280;4807;48.024;11.726;2024-01-10T02:55:23;95644.13;;;-5.91;87.52
9538;BME280;4807;48.024;11.726;2024-01-10T02:58:33;95637.75;;;-5.85;87.20
9538;BME280;4807;48.024;11.726;2024-01-10T03:01:41;95638.59;;;-5.85;87.86
9538;BME280;4807;48.024;11.726;2024-01-10T03:04:51;95637.97;;;-5.74;87.93
9538;BME280;4807;48.024;11.726;2024-01-10T03:07:59;95631.38;;;-5.80;87.53
9538;BME280;4807;48.024;11.726;2024-01-10T03:11:09;95617.09;;;-5.87;86.75
9538;BME280;4807;48.024;11.726;2024-01-10T03:14:19;95635.56;;;-5.77;87.02
9538;BME280;4807;48.024;11.726;2024-01-10T03:17:27;95627.03;;;-5.79;86.83
9538;BME280;4807;48.024;11.726;2024-01-10T03:20:36;95623.84;;;-5.68;86.77
9538;BME280;4807;48.024;11.726;2024-01-10T03:23:44;95623.03;;;-5.85;86.83
9538;BME280;4807;48.024;11.726;2024-01-10T03:26:52;95622.53;;;-5.75;86.48
9538;BME280;4807;48.024;11.726;2024-01-10T03:30:02;95626.09;;;-5.78;87.19
9538;BME280;4807;48.024;11.726;2024-01-10T03:33:10;95624.53;;;-5.81;86.24
9538;BME280;4807;48.024;11.726;2024-01-10T03:36:18;95613.38;;;-5.97;87.03
9538;BME280;4807;48.024;11.726;2024-01-10T03:39:27;95612.84;;;-5.88;86.04
9538;BME280;4807;48.024;11.726;2024-01-10T03:42:37;95618.81;;;-5.71;86.24
9538;BME280;4807;48.024;11.726;2024-01-10T03:45:47;95603.09;;;-5.68;85.41
9538;BME280;4807;48.024;11.726;2024-01-10T03:48:55;95614.16;;;-5.81;85.62
9538;BME280;4807;48.024;11.726;2024-01-10T03:52:04;95607.09;;;-5.93;86.46
9538;BME280;4807;48.024;11.726;2024-01-10T03:55:14;95599.31;;;-5.93;86.46
9538;BME280;4807;48.024;11.726;2024-01-10T03:58:24;95600.94;;;-5.76;85.76
9538;BME280;4807;48.024;11.726;2024-01-10T04:01:34;95594.72;;;-5.73;86.01
9538;BME280;4807;48.024;11.726;2024-01-10T04:04:46;95592.84;;;-5.86;86.17
9538;BME280;4807;48.024;11.726;2024-01-10T04:07:54;95589.78;;;-5.92;85.80
9538;BME280;4807;48.024;11.726;2024-01-10T04:11:04;95599.13;;;-5.90;86.41
9538;BME280;4807;48.024;11.726;2024-01-10T04:14:12;95594.28;;;-5.96;86.40
9538;BME280;4807;48.024;11.726;2024-01-10T04:17:22;95593.22;;;-5.92;85.78
9538;BME280;4807;48.024;11.726;2024-01-10T04:20:30;95592.38;;;-5.92;86.55
9538;BME280;4807;48.024;11.726;2024-01-10T04:23:39;95591.44;;;-6.07;86.60
9538;BME280;4807;48.024;11.726;2024-01-10T04:26:47;95595.56;;;-6.03;86.97
9538;BME280;4807;48.024;11.726;2024-01-10T04:29:55;95594.66;;;-6.02;86.99
9538;BME280;4807;48.024;11.726;2024-01-10T04:33:05;95589.88;;;-5.94;86.78
9538;BME280;4807;48.024;11.726;2024-01-10T04:36:13;95588.28;;;-5.96;86.29
9538;BME280;4807;48.024;11.726;2024-01-10T04:39:21;95586.16;;;-5.90;86.58
9538;BME280;4807;48.024;11.726;2024-01-10T04:42:30;95581.06;;;-5.91;86.56
9538;BME280;4807;48.024;11.726;2024-01-10T04:45:39;95589.41;;;-5.86;86.06
9538;BME280;4807;48.024;11.726;2024-01-10T04:48:48;95590.25;;;-5.86;86.57
9538;BME280;4807;48.024;11.726;2024-01-10T04:51:57;95591.72;;;-5.82;85.59
9538;BME280;4807;48.024;11.726;2024-01-10T04:55:06;95596.72;;;-5.93;85.67
9538;BME280;4807;48.024;11.726;2024-01-10T04:58:15;95601.00;;;-5.92;85.54
9538;BME280;4807;48.024;11.726;2024-01-10T05:01:24;95597.28;;;-5.88;85.94
9538;BME280;4807;48.024;11.726;2024-01-10T05:04:33;95604.03;;;-5.85;85.49
9538;BME280;4807;48.024;11.726;2024-01-10T05:07:42;95605.44;;;-5.80;85.74
9538;BME280;4807;48.024;11.726;2024-01-10T05:10:50;95607.88;;;-5.77;85.99
9538;BME280;4807;48.024;11.726;2024-01-10T05:13:58;95605.28;;;-5.77;86.27
9538;BME280;4807;48.024;11.726;2024-01-10T05:17:06;95619.94;;;-5.75;85.18
9538;BME280;4807;48.024;11.726;2024-01-10T05:20:16;95613.38;;;-5.83;84.95
9538;BME280;4807;48.024;11.726;2024-01-10T05:23:24;95615.25;;;-5.85;85.24
9538;BME280;4807;48.024;11.726;2024-01-10T05:26:32;95615.44;;;-5.88;85.67
9538;BME280;4807;48.024;11.726;2024-01-10T05:29:41;95615.03;;;-5.96;85.29
9538;BME280;4807;48.024;11.726;2024-01-10T05:32:49;95613.84;;;-5.90;85.34
9538;BME280;4807;48.024;11.726;2024-01-10T05:35:59;95597.44;;;-5.91;85.95
9538;BME280;4807;48.024;11.726;2024-01-10T05:39:07;95609.84;;;-5.96;85.36
9538;BME280;4807;48.024;11.726;2024-01-10T05:42:15;95616.03;;;-5.98;85.94
9538;BME280;4807;48.024;11.726;2024-01-10T05:45:23;95617.13;;;-6.02;85.12
9538;BME280;4807;48.024;11.726;2024-01-10T05:48:32;95617.56;;;-6.10;85.70
9538;BME280;4807;48.024;11.726;2024-01-10T05:51:41;95623.75;;;-6.12;85.28
9538;BME280;4807;48.024;11.726;2024-01-10T05:54:49;95618.41;;;-6.09;85.20
9538;BME280;4807;48.024;11.726;2024-01-10T05:57:58;95623.75;;;-6.28;85.31
9538;BME280;4807;48.024;11.726;2024-01-10T06:01:06;95619.06;;;-6.37;85.38
9538;BME280;4807;48.024;11.726;2024-01-10T06:04:17;95617.97;;;-6.49;85.27
9538;BME280;4807;48.024;11.726;2024-01-10T06:07:27;95618.06;;;-6.50;85.51
9538;BME280;4807;48.024;11.726;2024-01-10T06:10:35;95620.22;;;-6.59;84.95
9538;BME280;4807;48.024;11.726;2024-01-10T06:13:45;95623.38;;;-6.69;84.82
9538;BME280;4807;48.024;11.726;2024-01-10T06:17:03;95628.94;;;-6.77;85.66
9538;BME280;4807;48.024;11.726;2024-01-10T06:20:11;95641.59;;;-6.88;85.38
9538;BME280;4807;48.024;11.726;2024-01-10T06:23:23;95633.41;;;-6.96;86.34
9538;BME280;4807;48.024;11.726;2024-01-10T06:26:32;95639.81;;;-7.03;85.82
9538;BME280;4807;48.024;11.726;2024-01-10T06:29:40;95643.56;;;-7.09;85.93
9538;BME280;4807;48.024;11.726;2024-01-10T06:32:49;95644.78;;;-7.16;86.46
9538;BME280;4807;48.024;11.726;2024-01-10T06:35:57;95648.13;;;-7.14;86.89
9538;BME280;4807;48.024;11.726;2024-01-10T06:39:09;95642.19;;;-7.33;87.45
9538;BME280;4807;48.024;11.726;2024-01-10T06:42:19;95657.78;;;-7.35;87.19
9538;BME280;4807;48.024;11.726;2024-01-10T06:45:28;95653.00;;;-7.42;87.54
9538;BME280;4807;48.024;11.726;2024-01-10T06:48:36;95653.84;;;-7.42;86.76
9538;BME280;4807;48.024;11.726;2024-01-10T06:51:48;95652.03;;;-7.40;86.75
9538;BME280;4807;48.024;11.726;2024-01-10T06:54:58;95647.06;;;-7.44;86.90
9538;BME280;4807;48.024;11.726;2024-01-10T06:58:06;95650.66;;;-7.47;87.22
9538;BME280;4807;48.024;11.726;2024-01-10T07:01:14;95653.00;;;-7.42;87.46
9538;BME280;4807;48.024;11.726;2024-01-10T07:04:23;95646.47;;;-7.49;87.09
9538;BME280;4807;48.024;11.726;2024-01-10T07:07:31;95651.50;;;-7.46;87.25
9538;BME280;4807;48.024;11.726;2024-01-10T07:10:43;95650.03;;;-7.35;87.21
9538;BME280;4807;48.024;11.726;2024-01-10T07:13:51;95654.38;;;-7.35;87.58
9538;BME280;4807;48.024;11.726;2024-01-10T07:17:00;95649.72;;;-7.28;87.40
9538;BME280;4807;48.024;11.726;2024-01-10T07:20:09;95646.75;;;-7.21;86.39
9538;BME280;4807;48.024;11.726;2024-01-10T07:23:20;95651.78;;;-7.18;85.75
9538;BME280;4807;48.024;11.726;2024-01-10T07:26:31;95665.09;;;-7.25;84.91
9538;BME280;4807;48.024;11.726;2024-01-10T07:29:40;95666.72;;;-7.23;85.30
9538;BME280;4807;48.024;11.726;2024-01-10T07:32:49;95674.16;;;-7.17;85.03
9538;BME280;4807;48.024;11.726;2024-01-10T07:35:57;95665.31;;;-7.13;84.51
9538;BME280;4807;48.024;11.726;2024-01-10T07:39:15;95678.34;;;-7.14;85.00
9538;BME280;4807;48.024;11.726;2024-01-10T07:42:26;95679.53;;;-7.04;84.36
9538;BME280;4807;48.024;11.726;2024-01-10T07:45:35;95687.94;;;-6.99;84.17
9538;BME280;4807;48.024;11.726;2024-01-10T07:48:43;95689.44;;;-6.95;84.14
9538;BME280;4807;48.024;11.726;2024-01-10T07:51:52;95702.09;;;-6.89;84.11
9538;BME280;4807;48.024;11.726;2024-01-10T07:55:02;95684.56;;;-6.84;83.76
9538;BME280;4807;48.024;11.726;2024-01-10T07:58:13;95689.72;;;-6.67;83.08
9538;BME280;4807;48.024;11.726;2024-01-10T08:01:22;95691.22;;;-6.63;82.97
9538;BME280;4807;48.024;11.726;2024-01-10T08:04:31;95702.78;;;-6.52;82.12
9538;BME280;4807;48.024;11.726;2024-01-10T08:07:42;95699.06;;;-6.64;82.41
9538;BME280;4807;48.024;11.726;2024-01-10T08:10:56;95704.53;;;-6.53;81.91
9538;BME280;4807;48.024;11.726;2024-01-10T08:14:07;95693.75;;;-6.45;81.27
9538;BME280;4807;48.024;11.726;2024-01-10T08:17:16;95687.19;;;-6.35;81.83
9538;BME280;4807;48.024;11.726;2024-01-10T08:20:25;95689.38;;;-6.12;81.86
9538;BME280;4807;48.024;11.726;2024-01-10T08:23:33;95691.47;;;-6.19;81.11
9538;BME280;4807;48.024;11.726;2024-01-10T08:26:42;95692.13;;;-5.99;81.03
9538;BME280;4807;48.024;11.726;2024-01-10T08:29:52;95692.31;;;-6.02;81.30
9538;BME280;4807;48.024;11.726;2024-01-10T08:33:00;95695.63;;;-5.85;81.25
9538;BME280;4807;48.024;11.726;2024-01-10T08:36:11;95707.88;;;-6.02;81.46
9538;BME280;4807;48.024;11.726;2024-01-10T08:39:24;95701.25;;;-5.77;81.83
9538;BME280;4807;48.024;11.726;2024-01-10T08:42:35;95694.75;;;-5.38;80.93
9538;BME280;4807;48.024;11.726;2024-01-10T08:45:46;95702.00;;;-4.99;80.99
9538;BME280;4807;48.024;11.726;2024-01-10T08:48:54;95706.25;;;-4.68;79.36
9538;BME280;4807;48.024;11.726;2024-01-10T08:52:03;95700.78;;;-4.49;78.28
9538;BME280;4807;48.024;11.726;2024-01-10T08:55:13;95712.56;;;-4.58;76.97
9538;BME280;4807;48.024;11.726;2024-01-10T08:58:22;95711.28;;;-4.37;76.69
9538;BME280;4807;48.024;11.726;2024-01-10T09:01:34;95709.25;;;-4.32;76.05
9538;BME280;4807;48.024;11.726;2024-01-10T09:04:42;95708.75;;;-4.67;75.39
9538;BME280;4807;48.024;11.726;2024-01-10T09:07:51;95712.84;;;-4.63;76.15
9538;BME280;4807;48.024;11.726;2024-01-10T09:11:01;95717.06;;;-4.46;76.70
9538;BME280;4807;48.024;11.726;2024-01-10T09:14:11;95724.00;;;-4.32;76.59
9538;BME280;4807;48.024;11.726;2024-01-10T09:17:21;95728.75;;;-4.10;76.23
9538;BME280;4807;48.024;11.726;2024-01-10T09:20:30;95725.84;;;-4.20;75.48
9538;BME280;4807;48.024;11.726;2024-01-10T09:23:39;95725.03;;;-4.20;76.58
9538;BME280;4807;48.024;11.726;2024-01-10T09:26:47;95728.34;;;-4.04;76.45
9538;BME280;4807;48.024;11.726;2024-01-10T09:29:56;95729.19;;;-4.04;76.19
9538;BME280;4807;48.024;11.726;2024-01-10T09:33:05;95727.44;;;-4.17;76.68
9538;BME280;4807;48.024;11.726;2024-01-10T09:36:14;95734.78;;;-3.81;76.61
9538;BME280;4807;48.024;11.726;2024-01-10T09:39:22;95737.63;;;-3.58;75.75
9538;BME280;4807;48.024;11.726;2024-01-10T09:42:31;95740.44;;;-3.34;75.43
9538;BME280;4807;48.024;11.726;2024-01-10T09:45:46;95734.00;;;-3.01;75.37
9538;BME280;4807;48.024;11.726;2024-01-10T09:48:57;95736.22;;;-2.83;73.04
9538;BME280;4807;48.024;11.726;2024-01-10T09:52:10;95727.06;;;-2.76;73.03
9538;BME280;4807;48.024;11.726;2024-01-10T09:55:22;95728.84;;;-2.63;72.74
9538;BME280;4807;48.024;11.726;2024-01-10T09:58:32;95723.97;;;-2.55;72.50
9538;BME280;4807;48.024;11.726;2024-01-10T10:01:48;95726.06;;;-2.22;72.37
9538;BME280;4807;48.024;11.726;2024-01-10T10:05:12;95715.81;;;-1.87;71.79
9538;BME280;4807;48.024;11.726;2024-01-10T10:08:31;95711.44;;;-1.87;70.26
9538;BME280;4807;48.024;11.726;2024-01-10T10:11:41;95712.63;;;-1.67;69.43
9538;BME280;4807;48.024;11.726;2024-01-10T10:14:50;95717.88;;;-1.07;68.77
9538;BME280;4807;48.024;11.726;2024-01-10T10:17:58;95717.63;;;-1.04;67.02
9538;BME280;4807;48.024;11.726;2024-01-10T10:21:10;95715.06;;;-1.17;67.44
9538;BME280;4807;48.024;11.726;2024-01-10T10:24:20;95712.06;;;-0.99;67.47
9538;BME280;4807;48.024;11.726;2024-01-10T10:27:33;95709.78;;;-1.28;67.20
9538;BME280;4807;48.024;11.726;2024-01-10T10:30:46;95706.81;;;-1.71;68.60
9538;BME280;4807;48.024;11.726;2024-01-10T10:33:55;95708.94;;;-1.28;69.11
9538;BME280;4807;48.024;11.726;2024-01-10T10:37:05;95712.09;;;-1.23;68.54
9538;BME280;4807;48.024;11.726;2024-01-10T10:40:14;95716.66;;;-1.14;68.04
9538;BME280;4807;48.024;11.726;2024-01-10T10:43:24;95710.38;;;-0.77;67.69
9538;BME280;4807;48.024;11.726;2024-01-10T10:46:34;95713.56;;;-1.32;68.32
9538;BME280;4807;48.024;11.726;2024-01-10T10:49:53;95715.56;;;-1.72;69.98
9538;BME280;4807;48.024;11.726;2024-01-10T10:53:04;95721.78;;;-1.49;69.37
9538;BME280;4807;48.024;11.726;2024-01-10T10:56:12;95717.03;;;-1.07;69.25
9538;BME280;4807;48.024;11.726;2024-01-10T10:59:24;95710.28;;;-0.64;68.94
9538;BME280;4807;48.024;11.726;2024-01-10T11:02:34;95711.13;;;-0.98;68.95
9538;BME280;4807;48.024;11.726;2024-01-10T11:05:44;95715.75;;;-2.37;72.62
9538;BME280;4807;48.024;11.726;2024-01-10T11:09:02;95727.31;;;-2.53;74.95
9538;BME280;4807;48.024;11.726;2024-01-10T11:12:43;95711.22;;;-2.73;74.62
9538;BME280;4807;48.024;11.726;2024-01-10T11:20:15;95706.19;;;-1.38;72.29
9538;BME280;4807;48.024;11.726;2024-01-10T11:23:41;95709.47;;;-1.47;72.70
9538;BME280;4807;48.024;11.726;2024-01-10T11:27:07;95705.06;;;-0.99;71.82
9538;BME280;4807;48.024;11.726;2024-01-10T11:30:33;95703.84;;;-0.71;71.03
9538;BME280;4807;48.024;11.726;2024-01-10T11:33:42;95703.84;;;-0.71;69.89
9538;BME280;4807;48.024;11.726;2024-01-10T11:37:09;95708.59;;;-0.76;68.71
9538;BME280;4807;48.024;11.726;2024-01-10T11:40:47;95713.94;;;-0.43;68.97
9538;BME280;4807;48.024;11.726;2024-01-10T11:44:29;95703.56;;;-0.44;68.14
9538;BME280;4807;48.024;11.726;2024-01-10T11:47:39;95712.19;;;-1.01;68.68
9538;BME280;4807;48.024;11.726;2024-01-10T11:50:48;95721.28;;;-1.54;72.27
9538;BME280;4807;48.024;11.726;2024-01-10T11:53:57;95719.59;;;-2.17;74.29
9538;BME280;4807;48.024;11.726;2024-01-10T11:57:19;95722.88;;;-1.64;73.89
9538;BME280;4807;48.024;11.726;2024-01-10T12:00:29;95715.19;;;-1.78;74.54
9538;BME280;4807;48.024;11.726;2024-01-10T12:03:40;95709.75;;;-1.15;72.61
9538;BME280;4807;48.024;11.726;2024-01-10T12:07:09;95711.16;;;-0.87;71.50
9538;BME280;4807;48.024;11.726;2024-01-10T12:10:18;95708.91;;;-0.46;70.74
9538;BME280;4807;48.024;11.726;2024-01-10T12:13:26;95709.66;;;-0.44;69.98
9538;BME280;4807;48.024;11.726;2024-01-10T12:16:37;95708.88;;;-0.68;69.80
9538;BME280;4807;48.024;11.726;2024-01-10T12:19:45;95708.78;;;-0.90;70.69
9538;BME280;4807;48.024;11.726;2024-01-10T12:22:56;95703.94;;;-2.55;76.01
9538;BME280;4807;48.024;11.726;2024-01-10T12:26:06;95711.44;;;-2.50;78.92
9538;BME280;4807;48.024;11.726;2024-01-10T12:29:18;95706.88;;;-2.21;78.03
9538;BME280;4807;48.024;11.726;2024-01-10T12:32:29;95704.75;;;-1.78;76.14
9538;BME280;4807;48.024;11.726;2024-01-10T12:35:37;95701.63;;;-2.09;77.77
9538;BME280;4807;48.024;11.726;2024-01-10T12:38:50;95698.47;;;-1.52;76.24
9538;BME280;4807;48.024;11.726;2024-01-10T12:41:59;95699.88;;;-1.11;73.89
9538;BME280;4807;48.024;11.726;2024-01-10T12:45:20;95691.47;;;-1.39;74.08
9538;BME280;4807;48.024;11.726;2024-01-10T12:48:31;95700.00;;;-1.37;75.07
9538;BME280;4807;48.024;11.726;2024-01-10T12:51:40;95699.41;;;-1.53;74.39
9538;BME280;4807;48.024;11.726;2024-01-10T12:54:49;95695.88;;;-1.04;73.87
9538;BME280;4807;48.024;11.726;2024-01-10T12:57:57;95695.66;;;-1.01;74.17
9538;BME280;4807;48.024;11.726;2024-01-10T13:01:12;95695.38;;;-0.86;73.96
9538;BME280;4807;48.024;11.726;2024-01-10T13:04:22;95693.78;;;-1.23;74.68
9538;BME280;4807;48.024;11.726;2024-01-10T13:07:30;95695.00;;;-1.40;74.14
9538;BME280;4807;48.024;11.726;2024-01-10T13:10:42;95696.16;;;-1.80;75.94
9538;BME280;4807;48.024;11.726;2024-01-10T13:13:50;95701.06;;;-1.39;76.08
9538;BME280;4807;48.024;11.726;2024-01-10T13:16:59;95695.63;;;-1.85;75.14
9538;BME280;4807;48.024;11.726;2024-01-10T13:20:10;95706.16;;;-3.01;80.55
9538;BME280;4807;48.024;11.726;2024-01-10T13:23:19;95694.53;;;-2.57;81.06
9538;BME280;4807;48.024;11.726;2024-01-10T13:26:29;95697.25;;;-2.08;80.12
9538;BME280;4807;48.024;11.726;2024-01-10T13:29:38;95706.19;;;-1.74;78.85
9538;BME280;4807;48.024;11.726;2024-01-10T13:32:46;95698.34;;;-1.38;78.19
9538;BME280;4807;48.024;11.726;2024-01-10T13:35:57;95705.16;;;-1.84;78.01
9538;BME280;4807;48.024;11.726;2024-01-10T13:39:06;95708.31;;;-2.17;79.58
9538;BME280;4807;48.024;11.726;2024-01-10T13:42:14;95710.81;;;-2.41;80.00
9538;BME280;4807;48.024;11.726;2024-01-10T13:45:23;95720.53;;;-2.43;79.78
9538;BME280;4807;48.024;11.726;2024-01-10T13:48:31;95718.13;;;-2.46;80.73
9538;BME280;4807;48.024;11.726;2024-01-10T13:51:43;95712.00;;;-2.20;80.16
9538;BME280;4807;48.024;11.726;2024-01-10T13:54:52;95721.84;;;-1.74;80.25
9538;BME280;4807;48.024;11.726;2024-01-10T13:58:00;95719.13;;;-1.85;77.12
9538;BME280;4807;48.024;11.726;2024-01-10T14:01:10;95728.16;;;-2.27;79.61
9538;BME280;4807;48.024;11.726;2024-01-10T14:04:18;95723.50;;;-2.87;82.63
9538;BME280;4807;48.024;11.726;2024-01-10T14:07:28;95721.78;;;-3.40;84.59
9538;BME280;4807;48.024;11.726;2024-01-10T14:10:36;95721.66;;;-3.80;86.92
9538;BME280;4807;48.024;11.726;2024-01-10T14:13:46;95718.94;;;-3.78;87.08
9538;BME280;4807;48.024;11.726;2024-01-10T14:16:54;95721.72;;;-3.67;88.21
9538;BME280;4807;48.024;11.726;2024-01-10T14:20:03;95722.78;;;-3.16;87.94
9538;BME280;4807;48.024;11.726;2024-01-10T14:23:14;95724.53;;;-2.90;85.87
9538;BME280;4807;48.024;11.726;2024-01-10T14:26:25;95726.66;;;-2.57;84.65
9538;BME280;4807;48.024;11.726;2024-01-10T14:29:34;95726.84;;;-2.73;84.07
9538;BME280;4807;48.024;11.726;2024-01-10T14:32:43;95731.38;;;-2.49;83.38
9538;BME280;4807;48.024;11.726;2024-01-10T14:35:54;95728.34;;;-2.68;82.97
9538;BME280;4807;48.024;11.726;2024-01-10T14:39:05;95740.38;;;-2.80;82.83
9538;BME280;4807;48.024;11.726;2024-01-10T14:42:14;95735.97;;;-2.53;83.23
9538;BME280;4807;48.024;11.726;2024-01-10T14:45:22;95743.78;;;-2.40;83.80
9538;BME280;4807;48.024;11.726;2024-01-10T14:48:31;95739.81;;;-2.33;83.23
9538;BME280;4807;48.024;11.726;2024-01-10T14:51:40;95738.47;;;-2.26;83.40
9538;BME280;4807;48.024;11.726;2024-01-10T14:54:50;95743.16;;;-2.56;83.24
9538;BME280;4807;48.024;11.726;2024-01-10T14:57:58;95751.91;;;-2.97;83.75
9538;BME280;4807;48.024;11.726;2024-01-10T15:01:07;95745.91;;;-2.85;84.11
9538;BME280;4807;48.024;11.726;2024-01-10T15:04:16;95743.41;;;-3.13;85.09
9538;BME280;4807;48.024;11.726;2024-01-10T15:07:24;95757.59;;;-3.31;85.96
9538;BME280;4807;48.024;11.726;2024-01-10T15:10:35;95751.47;;;-3.30;86.67
9538;BME280;4807;48.024;11.726;2024-01-10T15:13:43;95745.38;;;-3.43;86.79
9538;BME280;4807;48.024;11.726;2024-01-10T15:16:55;95749.31;;;-3.51;87.97
9538;BME280;4807;48.024;11.726;2024-01-10T15:20:07;95752.19;;;-3.55;88.15
9538;BME280;4807;48.024;11.726;2024-01-10T15:23:16;95748.97;;;-3.73;88.89
9538;BME280;4807;48.024;11.726;2024-01-10T15:26:27;95759.00;;;-3.67;89.17
9538;BME280;4807;48.024;11.726;2024-01-10T15:29:37;95767.16;;;-3.59;89.20
9538;BME280;4807;48.024;11.726;2024-01-10T15:32:49;95762.06;;;-3.60;88.86
9538;BME280;4807;48.024;11.726;2024-01-10T15:35:58;95757.78;;;-3.61;88.48
9538;BME280;4807;48.024;11.726;2024-01-10T15:39:06;95753.00;;;-3.55;88.09
9538;BME280;4807;48.024;11.726;2024-01-10T15:42:16;95764.84;;;-3.63;89.18
9538;BME280;4807;48.024;11.726;2024-01-10T15:45:25;95760.81;;;-3.55;88.38
9538;BME280;4807;48.024;11.726;2024-01-10T15:48:34;95762.41;;;-3.52;87.53
9538;BME280;4807;48.024;11.726;2024-01-10T15:51:43;95761.97;;;-3.59;88.11
9538;BME280;4807;48.024;11.726;2024-01-10T15:54:52;95760.28;;;-3.60;87.66
9538;BME280;4807;48.024;11.726;2024-01-10T15:58:04;95761.97;;;-3.59;87.42
9538;BME280;4807;48.024;11.726;2024-01-10T16:01:13;95767.06;;;-3.57;87.54
9538;BME280;4807;48.024;11.726;2024-01-10T16:04:22;95772.28;;;-3.57;87.48
9538;BME280;4807;48.024;11.726;2024-01-10T16:07:32;95764.38;;;-3.70;87.48
9538;BME280;4807;48.024;11.726;2024-01-10T16:10:42;95761.88;;;-3.71;88.06
9538;BME280;4807;48.024;11.726;2024-01-10T16:13:52;95763.09;;;-3.77;88.05
9538;BME280;4807;48.024;11.726;2024-01-10T16:17:00;95764.41;;;-3.98;88.08
9538;BME280;4807;48.024;11.726;2024-01-10T16:20:11;95771.31;;;-3.97;89.15
9538;BME280;4807;48.024;11.726;2024-01-10T16:23:19;95773.59;;;-3.93;90.33
9538;BME280;4807;48.024;11.726;2024-01-10T16:26:28;95784.75;;;-3.91;89.07
9538;BME280;4807;48.024;11.726;2024-01-10T16:29:38;95776.88;;;-3.89;89.79
9538;BME280;4807;48.024;11.726;2024-01-10T16:32:46;95777.13;;;-3.79;89.96
9538;BME280;4807;48.024;11.726;2024-01-10T16:35:55;95775.56;;;-3.82;88.49
9538;BME280;4807;48.024;11.726;2024-01-10T16:39:03;95771.38;;;-3.85;88.71
9538;BME280;4807;48.024;11.726;2024-01-10T16:42:12;95773.81;;;-3.81;89.49
9538;BME280;4807;48.024;11.726;2024-01-10T16:45:23;95766.63;;;-3.78;88.81
9538;BME280;4807;48.024;11.726;2024-01-10T16:48:32;95763.31;;;-4.08;88.36
9538;BME280;4807;48.024;11.726;2024-01-10T16:51:41;95765.41;;;-3.87;89.14
9538;BME280;4807;48.024;11.726;2024-01-10T16:54:49;95756.50;;;-3.82;88.82
9538;BME280;4807;48.024;11.726;2024-01-10T16:57:57;95757.00;;;-3.90;89.00
9538;BME280;4807;48.024;11.726;2024-01-10T17:01:10;95764.03;;;-3.92;89.12
9538;BME280;4807;48.024;11.726;2024-01-10T17:04:19;95768.03;;;-3.87;88.88